createdAt,value
2022-12-31T00:04:11.117Z,1028.18
2022-12-31T00:11:11.551Z,1354.70
2022-12-31T00:24:05.863Z,1109.17
2022-12-31T00:31:21.704Z,1200.00
2022-12-31T00:39:31.911Z,1140.30
2022-12-31T01:07:14.725Z,723.94
2022-12-31T01:34:37.933Z,504.58
2022-12-31T01:37:50.173Z,220.11
2022-12-31T01:41:00.248Z,198.34
2022-12-31T01:44:55.301Z,202.60
2022-12-31T01:48:06.282Z,208.86
2022-12-31T01:51:14.189Z,208.02
2022-12-31T01:54:28.819Z,199.78
2022-12-31T01:57:39.489Z,191.72
2022-12-31T02:00:50.449Z,192.52
2022-12-31T02:04:02.235Z,192.58
2022-12-31T02:07:12.211Z,191.31
2022-12-31T02:10:23.968Z,181.57
2022-12-31T02:13:30.391Z,180.42
2022-12-31T02:16:55.287Z,178.20
2022-12-31T02:20:49.063Z,177.35
2022-12-31T02:28:07.458Z,183.50
2022-12-31T02:31:28.068Z,187.82
2022-12-31T02:34:42.820Z,199.60
2022-12-31T02:38:00.057Z,191.24
2022-12-31T02:41:07.441Z,182.37
2022-12-31T02:44:27.762Z,172.96
2022-12-31T02:47:59.613Z,169.96
2022-12-31T02:51:31.148Z,165.25
2022-12-31T02:54:55.760Z,174.13
2022-12-31T02:58:17.029Z,172.48
2022-12-31T03:01:48.805Z,184.13
2022-12-31T03:04:59.973Z,171.05
2022-12-31T03:08:06.743Z,184.77
2022-12-31T03:11:32.600Z,186.85
2022-12-31T03:14:36.776Z,178.73
2022-12-31T03:17:42.667Z,186.04
2022-12-31T03:21:07.127Z,211.39
2022-12-31T03:24:28.003Z,217.16
2022-12-31T03:27:34.862Z,226.34
2022-12-31T03:30:43.919Z,212.19
2022-12-31T03:33:53.728Z,202.67
2022-12-31T03:37:02.224Z,216.96
2022-12-31T03:40:23.129Z,225.48
2022-12-31T03:43:29.892Z,205.78
2022-12-31T03:46:36.749Z,181.67
2022-12-31T03:49:42.576Z,165.87
2022-12-31T03:52:51.897Z,155.60
2022-12-31T03:55:58.743Z,161.73
2022-12-31T03:59:05.704Z,173.27
2022-12-31T04:02:11.760Z,180.60
2022-12-31T04:05:20.611Z,180.60
2022-12-31T04:08:29.566Z,183.16
2022-12-31T04:11:36.509Z,186.02
2022-12-31T04:14:42.654Z,173.99
2022-12-31T04:17:52.715Z,170.01
2022-12-31T04:21:04.719Z,160.08
2022-12-31T04:24:15.338Z,166.95
2022-12-31T04:31:37.387Z,152.34
2022-12-31T04:34:44.276Z,149.16
2022-12-31T04:37:50.870Z,145.82
2022-12-31T04:41:14.128Z,142.86
2022-12-31T04:44:21.150Z,143.95
2022-12-31T04:47:31.262Z,141.89
2022-12-31T04:50:38.174Z,142.00
2022-12-31T04:53:46.031Z,139.44
2022-12-31T04:56:58.741Z,138.44
2022-12-31T05:00:06.178Z,144.73
2022-12-31T05:03:12.429Z,158.53
2022-12-31T05:06:32.320Z,162.15
2022-12-31T05:09:43.751Z,165.71
2022-12-31T05:12:57.462Z,151.64
2022-12-31T05:16:04.740Z,154.80
2022-12-31T05:19:23.433Z,153.44
2022-12-31T05:22:52.554Z,147.75
2022-12-31T05:26:00.186Z,148.36
2022-12-31T05:29:10.740Z,143.01
2022-12-31T05:32:17.882Z,129.86
2022-12-31T05:35:40.961Z,124.86
2022-12-31T05:38:59.303Z,121.97
2022-12-31T05:42:14.020Z,117.96
2022-12-31T05:49:30.080Z,122.60
2022-12-31T05:52:47.809Z,109.94
2022-12-31T05:55:59.034Z,107.47
2022-12-31T05:59:10.821Z,105.48
2022-12-31T06:02:17.344Z,103.16
2022-12-31T06:05:28.081Z,104.02
2022-12-31T06:08:37.975Z,99.98
2022-12-31T06:11:45.994Z,97.26
2022-12-31T06:14:53.075Z,98.33
2022-12-31T06:18:00.036Z,97.81
2022-12-31T06:21:09.276Z,92.33
2022-12-31T06:24:16.129Z,93.92
2022-12-31T06:27:22.105Z,92.16
2022-12-31T06:30:28.890Z,98.84
2022-12-31T06:33:36.214Z,101.63
2022-12-31T06:36:45.408Z,104.27
2022-12-31T06:39:51.897Z,107.89
2022-12-31T06:43:00.415Z,113.98
2022-12-31T06:46:09.838Z,111.19
2022-12-31T06:49:17.426Z,115.62
2022-12-31T06:52:26.099Z,109.57
2022-12-31T06:55:34.175Z,104.27
2022-12-31T06:58:42.307Z,95.77
2022-12-31T07:02:08.443Z,89.80
2022-12-31T07:05:33.831Z,87.93
2022-12-31T07:08:57.111Z,98.11
2022-12-31T07:12:15.283Z,97.65
2022-12-31T07:15:49.294Z,94.00
2022-12-31T07:19:15.839Z,104.48
2022-12-31T07:22:25.099Z,108.08
2022-12-31T07:25:35.592Z,118.31
2022-12-31T07:29:02.247Z,137.37
2022-12-31T07:32:28.512Z,140.57
2022-12-31T07:35:55.606Z,128.89
2022-12-31T07:39:12.138Z,124.91
2022-12-31T07:42:36.014Z,122.89
2022-12-31T07:45:53.676Z,114.90
2022-12-31T07:49:01.675Z,103.48
2022-12-31T07:52:08.891Z,119.33
2022-12-31T07:55:15.932Z,103.64
2022-12-31T07:58:51.239Z,183.38
2022-12-31T08:02:12.166Z,83.99
2022-12-31T08:05:32.868Z,109.35
2022-12-31T08:08:56.441Z,107.42
2022-12-31T08:12:04.638Z,98.40
2022-12-31T08:15:26.865Z,103.92
2022-12-31T08:18:36.959Z,94.17
2022-12-31T08:22:04.610Z,105.95
2022-12-31T08:25:33.203Z,91.44
2022-12-31T08:29:04.714Z,86.15
2022-12-31T08:32:27.102Z,86.42
2022-12-31T08:36:03.374Z,89.05
2022-12-31T08:39:25.687Z,80.77
2022-12-31T08:42:44.622Z,73.86
2022-12-31T08:45:55.687Z,81.66
2022-12-31T08:49:05.898Z,72.85
2022-12-31T08:52:23.211Z,98.20
2022-12-31T08:55:31.517Z,75.05
2022-12-31T08:58:54.313Z,76.98
2022-12-31T09:02:47.860Z,70.54
2022-12-31T09:06:13.390Z,74.20
2022-12-31T09:09:42.083Z,73.23
2022-12-31T09:13:15.133Z,68.59
2022-12-31T09:16:36.435Z,72.36
2022-12-31T09:19:42.329Z,72.17
2022-12-31T09:22:53.106Z,78.00
2022-12-31T09:26:18.560Z,76.33
2022-12-31T09:29:51.706Z,78.66
2022-12-31T09:33:11.068Z,75.54
2022-12-31T09:36:30.428Z,79.84
2022-12-31T09:39:47.154Z,77.41
2022-12-31T09:43:29.303Z,73.48
2022-12-31T09:47:52.928Z,75.20
2022-12-31T09:51:31.479Z,69.00
2022-12-31T09:54:57.092Z,58.36
2022-12-31T09:58:31.736Z,53.76
2022-12-31T10:02:00.282Z,48.37
2022-12-31T10:05:43.439Z,52.87
2022-12-31T10:09:30.218Z,48.65
2022-12-31T10:13:25.789Z,48.01
2022-12-31T10:17:06.090Z,48.12
2022-12-31T10:20:45.542Z,49.80
2022-12-31T10:24:42.386Z,44.19
2022-12-31T10:28:08.727Z,49.99
2022-12-31T10:31:34.608Z,49.66
2022-12-31T10:35:02.672Z,44.29
2022-12-31T10:38:27.510Z,49.49
2022-12-31T10:42:24.575Z,44.32
2022-12-31T10:46:29.528Z,40.81
2022-12-31T10:50:31.971Z,44.96
2022-12-31T10:54:26.993Z,46.96
2022-12-31T10:58:39.456Z,41.73
2022-12-31T11:02:03.871Z,40.07
2022-12-31T11:06:14.215Z,40.25
2022-12-31T11:10:15.215Z,43.70
2022-12-31T11:14:12.768Z,131.52
2022-12-31T11:17:47.856Z,971.03
2022-12-31T11:21:28.031Z,262.65
2022-12-31T11:25:03.240Z,501.72
2022-12-31T11:29:01.659Z,319.42
2022-12-31T11:32:33.989Z,55.26
2022-12-31T11:36:16.852Z,210.68
2022-12-31T11:39:50.148Z,121.97
2022-12-31T11:43:04.121Z,50.93
2022-12-31T11:46:36.946Z,1702.03
2022-12-31T11:50:15.497Z,59.29
2022-12-31T11:54:15.807Z,114.29
2022-12-31T11:57:34.408Z,68.13
2022-12-31T12:00:47.384Z,43.30
2022-12-31T12:03:54.302Z,43.29
2022-12-31T12:07:00.186Z,52.92
2022-12-31T12:10:36.188Z,43.12
2022-12-31T12:13:42.696Z,50.50
2022-12-31T12:16:49.780Z,49.45
2022-12-31T12:19:59.841Z,51.86
2022-12-31T12:23:20.342Z,49.41
2022-12-31T12:26:41.637Z,50.85
2022-12-31T12:29:48.172Z,49.60
2022-12-31T12:32:59.582Z,53.17
2022-12-31T12:36:15.546Z,103.68
2022-12-31T12:39:26.267Z,75.70
2022-12-31T12:42:35.619Z,62.66
2022-12-31T12:45:52.423Z,133.46
2022-12-31T12:49:02.817Z,55.36
2022-12-31T12:52:46.180Z,87.71
2022-12-31T12:56:22.935Z,57.17
2022-12-31T13:00:12.480Z,185.52
2022-12-31T13:04:33.493Z,54.46
2022-12-31T13:07:46.990Z,58.72
2022-12-31T13:11:21.876Z,61.89
2022-12-31T13:14:41.988Z,61.32
2022-12-31T13:18:07.667Z,60.94
2022-12-31T13:21:39.626Z,59.48
2022-12-31T13:25:03.778Z,64.49
2022-12-31T13:28:19.038Z,69.08
2022-12-31T13:31:37.362Z,72.11
2022-12-31T13:34:54.712Z,69.04
2022-12-31T13:38:14.661Z,70.63
2022-12-31T13:41:30.504Z,77.12
2022-12-31T13:44:48.906Z,82.89
2022-12-31T13:48:09.076Z,77.85
2022-12-31T13:51:32.709Z,72.40
2022-12-31T13:54:55.690Z,72.70
2022-12-31T13:58:19.384Z,116.20
2022-12-31T14:01:36.075Z,84.11
2022-12-31T14:04:53.408Z,96.31
2022-12-31T14:08:05.442Z,75.38
2022-12-31T14:11:27.721Z,71.81
2022-12-31T14:14:48.834Z,75.19
2022-12-31T14:18:12.701Z,83.45
2022-12-31T14:21:31.648Z,79.22
2022-12-31T14:24:49.964Z,86.66
2022-12-31T14:28:02.220Z,82.65
2022-12-31T14:31:30.600Z,81.85
2022-12-31T14:34:57.641Z,100.19
2022-12-31T14:38:22.827Z,84.14
2022-12-31T14:42:06.574Z,88.61
2022-12-31T14:45:36.396Z,84.23
2022-12-31T14:49:00.618Z,91.57
2022-12-31T14:52:26.544Z,90.51
2022-12-31T14:55:36.572Z,95.77
2022-12-31T14:58:46.202Z,101.34
2022-12-31T15:01:52.542Z,103.21
2022-12-31T15:05:20.383Z,109.86
2022-12-31T15:08:52.224Z,111.75
2022-12-31T15:12:33.941Z,111.79
2022-12-31T15:16:21.737Z,118.61
2022-12-31T15:20:19.054Z,122.17
2022-12-31T15:23:35.888Z,129.61
2022-12-31T15:26:54.101Z,137.25
2022-12-31T15:30:00.647Z,141.79
2022-12-31T15:33:22.810Z,140.60
2022-12-31T15:36:32.535Z,141.47
2022-12-31T15:39:45.932Z,142.17
2022-12-31T15:43:01.400Z,148.54
2022-12-31T15:46:20.395Z,146.91
2022-12-31T15:49:39.798Z,129.58
2022-12-31T15:52:53.387Z,134.18
2022-12-31T15:56:04.337Z,133.42
2022-12-31T15:59:20.149Z,192.55
2022-12-31T16:02:30.481Z,128.89
2022-12-31T16:05:39.791Z,111.81
2022-12-31T16:08:51.206Z,123.78
2022-12-31T16:12:01.338Z,96.86
2022-12-31T16:15:08.822Z,97.94
2022-12-31T16:18:22.628Z,91.86
2022-12-31T16:21:35.840Z,90.55
2022-12-31T16:25:03.143Z,95.95
2022-12-31T16:28:08.645Z,92.50
2022-12-31T16:31:22.026Z,93.78
2022-12-31T16:34:31.435Z,93.12
2022-12-31T16:37:40.791Z,111.28
2022-12-31T16:41:14.357Z,147.47
2022-12-31T16:44:30.513Z,106.12
2022-12-31T16:47:40.994Z,107.48
2022-12-31T16:50:51.956Z,91.76
2022-12-31T16:54:02.475Z,98.30
2022-12-31T16:57:12.097Z,98.86
2022-12-31T17:00:22.218Z,94.67
2022-12-31T17:03:32.737Z,97.89
2022-12-31T17:06:38.717Z,95.86
2022-12-31T17:09:48.111Z,97.41
2022-12-31T17:16:27.705Z,104.13
2022-12-31T17:19:47.821Z,105.93
2022-12-31T17:23:01.299Z,108.08
2022-12-31T17:26:15.706Z,160.26
2022-12-31T17:29:26.563Z,119.59
2022-12-31T17:32:40.160Z,140.99
2022-12-31T17:35:49.459Z,365.19
2022-12-31T17:38:55.380Z,101.54
2022-12-31T17:42:05.583Z,164.57
2022-12-31T17:45:24.393Z,90.71
2022-12-31T17:48:34.505Z,93.21
2022-12-31T17:51:45.611Z,86.80
2022-12-31T17:54:54.702Z,87.22
2022-12-31T17:58:09.326Z,85.93
2022-12-31T18:01:23.052Z,82.93
2022-12-31T18:04:31.912Z,81.88
2022-12-31T18:07:38.806Z,84.71
2022-12-31T18:10:47.888Z,82.77
2022-12-31T18:13:58.281Z,83.02
2022-12-31T18:17:04.251Z,86.54
2022-12-31T18:20:15.439Z,93.81
2022-12-31T18:23:28.756Z,90.99
2022-12-31T18:26:36.090Z,99.66
2022-12-31T18:29:44.622Z,91.03
2022-12-31T18:32:51.860Z,92.11
2022-12-31T18:36:08.738Z,92.94
2022-12-31T18:39:16.458Z,98.07
2022-12-31T18:42:28.556Z,103.35
2022-12-31T18:45:37.837Z,101.61
2022-12-31T18:48:44.445Z,96.04
2022-12-31T18:51:54.312Z,98.87
2022-12-31T18:55:00.294Z,92.09
2022-12-31T18:58:11.315Z,87.77
2022-12-31T19:01:31.182Z,92.57
2022-12-31T19:04:37.909Z,92.29
2022-12-31T19:07:43.787Z,92.11
2022-12-31T19:10:54.416Z,91.86
2022-12-31T19:14:00.237Z,93.73
2022-12-31T19:20:14.512Z,85.35
2022-12-31T19:23:24.200Z,85.62
2022-12-31T19:26:30.157Z,94.77
2022-12-31T19:29:37.532Z,100.36
2022-12-31T19:32:45.970Z,101.65
2022-12-31T19:35:52.865Z,98.79
2022-12-31T19:38:58.653Z,98.26
2022-12-31T19:42:05.212Z,98.48
2022-12-31T19:45:18.249Z,90.03
2022-12-31T19:48:32.710Z,82.79
2022-12-31T19:51:39.043Z,89.08
2022-12-31T19:54:45.614Z,84.38
2022-12-31T19:57:52.648Z,84.67
2022-12-31T20:01:03.433Z,85.79
2022-12-31T20:04:11.948Z,85.29
2022-12-31T20:07:23.605Z,88.38
2022-12-31T20:10:32.719Z,81.08
2022-12-31T20:13:40.374Z,86.80
2022-12-31T20:16:47.014Z,85.69
2022-12-31T20:19:57.433Z,86.78
2022-12-31T20:23:06.552Z,92.89
2022-12-31T20:26:15.353Z,97.43
2022-12-31T20:29:21.956Z,102.28
2022-12-31T20:32:28.681Z,104.68
2022-12-31T20:35:37.071Z,117.69
2022-12-31T20:38:44.007Z,121.64
2022-12-31T20:41:50.610Z,137.89
2022-12-31T20:44:57.311Z,124.92
2022-12-31T20:48:03.139Z,118.11
2022-12-31T20:51:12.740Z,127.24
2022-12-31T20:54:18.729Z,125.12
2022-12-31T20:57:30.171Z,127.56
2022-12-31T21:00:39.599Z,114.73
2022-12-31T21:04:06.718Z,108.65
2022-12-31T21:07:15.685Z,115.03
2022-12-31T21:10:22.298Z,122.83
2022-12-31T21:13:28.280Z,128.24
2022-12-31T21:16:35.800Z,134.70
2022-12-31T21:19:41.825Z,132.88
2022-12-31T21:22:52.068Z,133.54
2022-12-31T21:25:57.906Z,136.95
2022-12-31T21:29:04.844Z,138.60
2022-12-31T21:32:10.687Z,141.95
2022-12-31T21:38:47.623Z,144.73
2022-12-31T21:41:54.394Z,147.28
2022-12-31T21:45:00.567Z,152.10
2022-12-31T21:48:25.124Z,166.70
2022-12-31T21:51:32.049Z,164.46
2022-12-31T21:54:53.790Z,157.29
2022-12-31T21:58:25.173Z,155.38
2022-12-31T22:01:39.139Z,152.34
2022-12-31T22:05:02.341Z,148.75
2022-12-31T22:08:09.898Z,140.41
2022-12-31T22:11:21.019Z,138.86
2022-12-31T22:14:27.774Z,138.43
2022-12-31T22:17:33.673Z,142.71
2022-12-31T22:20:41.792Z,136.84
2022-12-31T22:23:48.772Z,133.17
2022-12-31T22:26:59.824Z,139.85
2022-12-31T22:30:25.651Z,125.22
2022-12-31T22:33:32.334Z,121.30
2022-12-31T22:36:38.314Z,121.27
2022-12-31T22:39:45.138Z,119.29
2022-12-31T22:42:53.732Z,118.41
2022-12-31T22:46:00.520Z,119.20
2022-12-31T22:49:08.038Z,121.75
2022-12-31T22:52:14.754Z,120.81
2022-12-31T22:55:20.838Z,123.43
2022-12-31T22:58:30.526Z,121.04
2022-12-31T23:01:37.034Z,115.97
2022-12-31T23:04:43.768Z,117.52
2022-12-31T23:07:49.631Z,265.90
2022-12-31T23:11:05.813Z,352.32
2022-12-31T23:14:32.657Z,350.69
2022-12-31T23:17:51.709Z,371.26
2022-12-31T23:21:09.825Z,349.73
2022-12-31T23:24:22.773Z,275.81
2022-12-31T23:27:32.039Z,222.73
2022-12-31T23:30:42.366Z,203.43
2022-12-31T23:33:48.327Z,179.59
2022-12-31T23:36:54.963Z,180.27
2022-12-31T23:40:00.927Z,185.30
2022-12-31T23:43:11.378Z,196.68
2022-12-31T23:46:20.888Z,208.10
2022-12-31T23:49:27.775Z,205.95
2022-12-31T23:52:33.736Z,171.18
2022-12-31T23:55:40.328Z,148.25
2022-12-31T23:58:46.559Z,148.34
